createdAt,value
2018-09-27T00:01:17.943Z,80.90
2018-09-27T00:03:47.838Z,81.40
2018-09-27T00:06:17.704Z,81.70
2018-09-27T00:08:47.560Z,82.10
2018-09-27T00:11:17.511Z,82.40
2018-09-27T00:13:47.402Z,82.60
2018-09-27T00:16:17.394Z,82.80
2018-09-27T00:18:47.329Z,83.20
2018-09-27T00:21:17.181Z,83.50
2018-09-27T00:23:47.086Z,83.90
2018-09-27T00:26:16.943Z,84.20
2018-09-27T00:28:46.837Z,84.60
2018-09-27T00:31:16.672Z,84.80
2018-09-27T00:33:46.542Z,84.70
2018-09-27T00:36:16.399Z,84.70
2018-09-27T00:38:46.316Z,85.00
2018-09-27T00:41:16.171Z,85.20
2018-09-27T00:43:46.034Z,85.40
2018-09-27T00:46:15.940Z,85.70
2018-09-27T00:48:45.792Z,86.00
2018-09-27T00:51:15.740Z,86.00
2018-09-27T00:53:45.634Z,85.60
2018-09-27T00:56:15.512Z,85.50
2018-09-27T00:58:45.375Z,85.50
2018-09-27T01:01:15.442Z,85.00
2018-09-27T01:03:45.472Z,84.30
2018-09-27T01:06:15.507Z,83.90
2018-09-27T01:08:45.719Z,83.80
2018-09-27T01:11:15.842Z,83.90
2018-09-27T01:13:45.967Z,83.90
2018-09-27T01:16:15.966Z,83.80
2018-09-27T01:18:46.054Z,83.90
2018-09-27T01:21:16.213Z,84.10
2018-09-27T01:23:46.294Z,84.30
2018-09-27T01:26:16.247Z,84.30
2018-09-27T01:28:46.502Z,84.40
2018-09-27T01:31:16.620Z,84.60
2018-09-27T01:33:46.622Z,84.70
2018-09-27T01:36:16.823Z,84.80
2018-09-27T01:38:46.806Z,85.20
2018-09-27T01:41:17.046Z,85.50
2018-09-27T01:43:47.052Z,85.60
2018-09-27T01:46:17.052Z,85.50
2018-09-27T01:48:47.027Z,85.90
2018-09-27T01:51:17.230Z,86.00
2018-09-27T01:53:47.233Z,86.10
2018-09-27T01:56:17.250Z,85.80
2018-09-27T01:58:47.292Z,85.60
2018-09-27T02:01:17.338Z,85.50
2018-09-27T02:03:47.350Z,85.40
2018-09-27T02:06:17.318Z,85.30
2018-09-27T02:08:47.305Z,85.30
2018-09-27T02:11:17.416Z,85.40
2018-09-27T02:13:47.574Z,85.50
2018-09-27T02:16:17.568Z,85.50
2018-09-27T02:18:47.602Z,85.40
2018-09-27T02:21:17.670Z,85.10
2018-09-27T02:23:47.787Z,84.80
2018-09-27T02:26:17.852Z,84.70
2018-09-27T02:28:47.902Z,84.40
2018-09-27T02:31:17.896Z,84.20
2018-09-27T02:33:47.903Z,84.00
2018-09-27T02:36:18.073Z,84.00
2018-09-27T02:38:48.149Z,84.30
2018-09-27T02:41:18.147Z,84.60
2018-09-27T02:43:48.180Z,84.70
2018-09-27T02:46:18.193Z,84.50
2018-09-27T02:48:48.388Z,85.50
2018-09-27T02:51:18.621Z,85.20
2018-09-27T02:53:48.708Z,85.00
2018-09-27T02:56:18.882Z,85.30
2018-09-27T02:58:48.893Z,85.70
2018-09-27T03:01:18.938Z,86.10
2018-09-27T03:03:49.030Z,86.50
2018-09-27T03:06:18.991Z,87.00
2018-09-27T03:08:49.067Z,87.40
2018-09-27T03:11:19.119Z,87.70
2018-09-27T03:13:49.257Z,87.70
2018-09-27T03:16:19.300Z,87.80
2018-09-27T03:18:49.389Z,87.70
2018-09-27T03:21:19.359Z,87.70
2018-09-27T03:23:49.409Z,87.70
2018-09-27T03:26:19.547Z,87.70
2018-09-27T03:28:49.602Z,87.70
2018-09-27T03:31:19.749Z,88.00
2018-09-27T03:33:49.838Z,87.70
2018-09-27T03:36:19.898Z,87.70
2018-09-27T03:38:49.917Z,88.10
2018-09-27T03:41:19.960Z,88.10
2018-09-27T03:43:50.006Z,88.40
2018-09-27T03:46:20.154Z,87.80
2018-09-27T03:48:50.344Z,87.60
2018-09-27T03:51:20.463Z,87.00
2018-09-27T03:53:50.534Z,86.90
2018-09-27T03:56:20.677Z,86.70
2018-09-27T03:58:50.820Z,86.50
2018-09-27T04:01:20.923Z,86.80
2018-09-27T04:03:50.963Z,87.30
2018-09-27T04:06:20.948Z,88.00
2018-09-27T04:08:51.095Z,87.30
2018-09-27T04:11:22.067Z,87.30
2018-09-27T04:13:52.120Z,87.50
2018-09-27T04:16:23.113Z,87.90
2018-09-27T04:18:53.143Z,88.20
2018-09-27T04:21:23.448Z,88.60
2018-09-27T04:23:53.583Z,88.80
2018-09-27T04:26:23.577Z,89.00
2018-09-27T04:28:53.855Z,88.80
2018-09-27T04:31:23.937Z,88.50
2018-09-27T04:33:54.103Z,88.30
2018-09-27T04:36:24.145Z,88.00
2018-09-27T04:38:54.411Z,87.70
2018-09-27T04:41:24.699Z,87.50
2018-09-27T04:43:54.717Z,87.20
2018-09-27T04:46:24.720Z,87.30
2018-09-27T04:48:54.809Z,87.40
2018-09-27T04:51:24.949Z,87.90
2018-09-27T04:53:55.353Z,87.70
2018-09-27T04:56:25.378Z,87.80
2018-09-27T04:58:55.599Z,87.90
2018-09-27T05:01:25.747Z,88.10
2018-09-27T05:03:55.900Z,87.90
2018-09-27T05:06:25.865Z,87.90
2018-09-27T05:08:55.893Z,88.00
2018-09-27T05:11:26.015Z,88.30
2018-09-27T05:13:56.148Z,88.90
2018-09-27T05:16:26.300Z,88.60
2018-09-27T05:18:56.397Z,88.90
2018-09-27T05:21:26.559Z,88.70
2018-09-27T05:23:56.526Z,88.50
2018-09-27T05:26:26.554Z,88.40
2018-09-27T05:28:56.696Z,88.10
2018-09-27T05:31:26.805Z,88.20
2018-09-27T05:33:56.909Z,87.80
2018-09-27T05:36:26.938Z,87.90
2018-09-27T05:38:57.114Z,87.30
2018-09-27T05:41:27.274Z,87.10
2018-09-27T05:43:57.439Z,87.00
2018-09-27T05:46:27.443Z,86.90
2018-09-27T05:48:57.591Z,87.00
2018-09-27T05:51:28.210Z,87.00
2018-09-27T05:53:58.333Z,87.00
2018-09-27T05:56:28.437Z,86.80
2018-09-27T05:58:58.481Z,86.90
2018-09-27T06:01:28.664Z,87.30
2018-09-27T06:03:58.619Z,87.20
2018-09-27T06:06:28.727Z,87.10
2018-09-27T06:08:58.865Z,87.00
2018-09-27T06:11:28.971Z,86.90
2018-09-27T06:13:58.932Z,87.10
2018-09-27T06:16:28.950Z,87.40
2018-09-27T06:18:58.952Z,87.80
2018-09-27T06:21:29.030Z,87.80
2018-09-27T06:23:59.111Z,87.40
2018-09-27T06:26:29.930Z,87.50
2018-09-27T06:28:59.973Z,87.60
2018-09-27T06:31:30.038Z,87.60
2018-09-27T06:34:00.023Z,87.70
2018-09-27T06:36:30.049Z,87.90
2018-09-27T06:39:00.248Z,88.00
2018-09-27T06:41:30.378Z,88.20
2018-09-27T06:44:00.270Z,88.20
2018-09-27T06:46:30.410Z,88.10
2018-09-27T06:49:00.422Z,88.10
2018-09-27T06:51:30.546Z,88.30
2018-09-27T06:54:00.680Z,88.30
2018-09-27T06:56:32.016Z,88.10
2018-09-27T06:59:02.158Z,88.30
2018-09-27T07:01:32.204Z,88.00
2018-09-27T07:04:02.354Z,87.80
2018-09-27T07:06:32.470Z,87.30
2018-09-27T07:09:02.719Z,87.10
2018-09-27T07:11:32.863Z,87.90
2018-09-27T07:14:03.957Z,86.70
2018-09-27T07:16:34.132Z,86.40
2018-09-27T07:19:04.372Z,86.60
2018-09-27T07:21:34.397Z,86.60
2018-09-27T07:24:04.521Z,86.80
2018-09-27T07:26:34.666Z,86.80
2018-09-27T07:29:04.728Z,86.80
2018-09-27T07:31:34.755Z,87.00
2018-09-27T07:34:04.775Z,87.00
2018-09-27T07:36:35.356Z,86.60
2018-09-27T07:39:07.845Z,86.50
2018-09-27T07:41:38.285Z,86.40
2018-09-27T07:44:08.751Z,86.40
2018-09-27T07:46:39.187Z,86.20
2018-09-27T07:49:09.349Z,86.00
2018-09-27T07:51:39.543Z,85.80
2018-09-27T07:54:09.663Z,85.80
2018-09-27T07:56:39.960Z,85.60
2018-09-27T07:59:10.151Z,85.20
2018-09-27T08:01:40.353Z,84.50
2018-09-27T08:04:10.613Z,84.00
2018-09-27T08:06:40.766Z,83.40
2018-09-27T08:09:10.782Z,82.80
2018-09-27T08:11:40.882Z,82.10
2018-09-27T08:14:10.816Z,81.80
2018-09-27T08:16:41.527Z,80.10
2018-09-27T08:19:11.632Z,79.40
2018-09-27T08:21:41.847Z,79.10
2018-09-27T08:24:11.881Z,78.50
2018-09-27T08:26:42.126Z,78.10
2018-09-27T08:29:12.129Z,78.10
2018-09-27T08:31:42.198Z,77.60
2018-09-27T08:34:12.387Z,77.00
2018-09-27T08:36:42.658Z,76.60
2018-09-27T08:39:13.172Z,76.20
2018-09-27T08:41:43.253Z,76.00
2018-09-27T08:44:13.377Z,75.60
2018-09-27T08:46:43.675Z,75.60
2018-09-27T08:49:13.922Z,74.10
2018-09-27T08:51:44.149Z,73.40
2018-09-27T08:54:14.129Z,72.40
2018-09-27T08:56:44.637Z,71.60
2018-09-27T08:59:14.728Z,71.20
2018-09-27T09:01:44.887Z,70.70
2018-09-27T09:04:15.517Z,70.70
2018-09-27T09:06:46.148Z,69.50
2018-09-27T09:09:16.271Z,68.70
2018-09-27T09:11:46.531Z,68.10
2018-09-27T09:14:16.825Z,67.50
2018-09-27T09:16:47.035Z,66.80
2018-09-27T09:19:18.189Z,66.10
2018-09-27T09:21:48.243Z,65.60
2018-09-27T09:24:18.393Z,65.10
2018-09-27T09:26:48.691Z,64.40
2018-09-27T09:29:18.858Z,63.60
2018-09-27T09:31:48.881Z,62.90
2018-09-27T09:34:18.884Z,62.20
2018-09-27T09:36:48.881Z,61.20
2018-09-27T09:39:19.081Z,60.00
2018-09-27T09:41:49.298Z,59.70
2018-09-27T09:44:19.350Z,59.70
2018-09-27T09:46:49.434Z,59.40
2018-09-27T09:49:19.470Z,58.90
2018-09-27T09:51:49.677Z,58.60
2018-09-27T09:54:19.792Z,58.20
2018-09-27T09:56:50.107Z,57.50
2018-09-27T09:59:20.130Z,57.00
2018-09-27T10:01:50.357Z,56.20
2018-09-27T10:04:20.530Z,55.60
2018-09-27T10:06:50.553Z,56.00
2018-09-27T10:09:20.600Z,54.20
2018-09-27T10:11:50.738Z,53.30
2018-09-27T10:14:20.745Z,52.50
2018-09-27T10:16:50.920Z,52.20
2018-09-27T10:19:21.052Z,51.90
2018-09-27T10:21:51.297Z,52.00
2018-09-27T10:24:21.154Z,51.70
2018-09-27T10:26:51.327Z,51.60
2018-09-27T10:29:21.332Z,50.70
2018-09-27T10:31:51.408Z,50.40
2018-09-27T10:34:21.597Z,50.60
2018-09-27T10:36:51.566Z,49.90
2018-09-27T10:39:21.639Z,49.40
2018-09-27T10:41:51.708Z,48.60
2018-09-27T10:44:21.774Z,47.80
2018-09-27T10:46:51.938Z,47.40
2018-09-27T10:49:22.059Z,47.10
2018-09-27T10:51:52.142Z,46.50
2018-09-27T10:54:22.324Z,46.10
2018-09-27T10:56:52.508Z,45.70
2018-09-27T10:59:22.580Z,45.40
2018-09-27T11:01:52.697Z,45.00
2018-09-27T11:04:22.730Z,44.50
2018-09-27T11:06:53.059Z,44.70
2018-09-27T11:09:23.110Z,44.60
2018-09-27T11:11:53.143Z,44.20
2018-09-27T11:14:23.204Z,44.40
2018-09-27T11:16:53.410Z,44.50
2018-09-27T11:19:23.475Z,43.30
2018-09-27T11:21:53.775Z,42.50
2018-09-27T11:24:23.844Z,42.00
2018-09-27T11:26:53.881Z,41.80
2018-09-27T11:29:29.021Z,40.80
2018-09-27T11:32:04.262Z,40.80
2018-09-27T11:34:34.427Z,41.10
2018-09-27T11:37:04.654Z,40.20
2018-09-27T11:39:34.807Z,39.50
2018-09-27T11:42:05.889Z,39.10
2018-09-27T11:44:36.004Z,38.30
2018-09-27T11:47:06.313Z,37.90
2018-09-27T11:49:36.415Z,37.00
2018-09-27T11:52:06.480Z,36.70
2018-09-27T11:54:36.620Z,36.60
2018-09-27T11:57:06.964Z,36.20
2018-09-27T11:59:37.016Z,36.30
2018-09-27T12:02:07.144Z,35.70
2018-09-27T12:04:37.286Z,35.40
2018-09-27T12:07:07.362Z,35.20
2018-09-27T12:09:37.381Z,35.30
2018-09-27T12:12:07.761Z,34.70
2018-09-27T12:14:37.860Z,33.90
2018-09-27T12:17:07.978Z,33.90
2018-09-27T12:19:38.050Z,33.60
2018-09-27T12:22:08.083Z,33.60
2018-09-27T12:24:38.321Z,33.50
2018-09-27T12:27:08.432Z,33.80
2018-09-27T12:29:38.637Z,34.30
2018-09-27T12:32:08.729Z,34.60
2018-09-27T12:34:38.838Z,34.80
2018-09-27T12:37:09.202Z,34.50
2018-09-27T12:39:39.222Z,34.20
2018-09-27T12:42:09.418Z,33.90
2018-09-27T12:44:39.396Z,33.30
2018-09-27T12:47:09.537Z,32.60
2018-09-27T12:49:39.546Z,32.80
2018-09-27T12:52:09.791Z,32.50
2018-09-27T12:54:39.791Z,33.00
2018-09-27T12:57:10.813Z,33.30
2018-09-27T12:59:40.872Z,33.10
2018-09-27T13:02:11.129Z,32.80
2018-09-27T13:04:41.149Z,33.10
2018-09-27T13:07:11.371Z,33.80
2018-09-27T13:09:41.760Z,33.90
2018-09-27T13:12:11.761Z,34.80
2018-09-27T13:14:41.825Z,33.20
2018-09-27T13:17:11.942Z,33.20
2018-09-27T13:19:42.077Z,33.10
2018-09-27T13:22:12.188Z,32.70
2018-09-27T13:24:42.171Z,32.90
2018-09-27T13:27:12.305Z,33.50
2018-09-27T13:29:42.375Z,34.30
2018-09-27T13:32:12.500Z,34.70
2018-09-27T13:34:42.520Z,34.20
2018-09-27T13:37:12.647Z,33.40
2018-09-27T13:39:42.970Z,33.50
2018-09-27T13:42:13.118Z,33.30
2018-09-27T13:44:43.225Z,33.00
2018-09-27T13:47:13.353Z,32.70
2018-09-27T13:49:43.363Z,32.00
2018-09-27T13:52:13.555Z,31.90
2018-09-27T13:54:43.622Z,32.70
2018-09-27T13:57:13.899Z,31.40
2018-09-27T13:59:44.118Z,31.80
2018-09-27T14:02:14.187Z,31.90
2018-09-27T14:04:44.219Z,31.40
2018-09-27T14:07:14.357Z,30.80
2018-09-27T14:09:44.439Z,30.70
2018-09-27T14:12:14.461Z,30.10
2018-09-27T14:14:44.674Z,30.10
2018-09-27T14:17:14.787Z,30.00
2018-09-27T14:19:44.940Z,29.80
2018-09-27T14:22:15.178Z,29.90
2018-09-27T14:24:45.260Z,30.10
2018-09-27T14:27:15.220Z,31.10
2018-09-27T14:29:45.346Z,32.10
2018-09-27T14:32:15.530Z,33.10
2018-09-27T14:34:45.639Z,34.00
2018-09-27T14:37:15.679Z,34.10
2018-09-27T14:39:45.816Z,34.10
2018-09-27T14:42:15.810Z,34.30
2018-09-27T14:44:45.950Z,34.50
2018-09-27T14:47:15.990Z,34.20
2018-09-27T14:49:46.007Z,34.40
2018-09-27T14:52:16.055Z,34.10
2018-09-27T14:54:46.169Z,33.80
2018-09-27T14:57:16.228Z,33.40
2018-09-27T14:59:46.334Z,33.20
2018-09-27T15:02:16.668Z,34.10
2018-09-27T15:04:46.624Z,35.80
2018-09-27T15:07:16.608Z,34.80
2018-09-27T15:09:46.706Z,35.10
2018-09-27T15:12:16.955Z,34.90
2018-09-27T15:14:47.378Z,35.60
2018-09-27T15:17:17.531Z,35.90
2018-09-27T15:19:47.714Z,36.50
2018-09-27T15:22:17.807Z,36.90
2018-09-27T15:24:47.825Z,37.00
2018-09-27T15:27:18.103Z,37.40
2018-09-27T15:29:48.244Z,37.90
2018-09-27T15:32:18.331Z,37.80
2018-09-27T15:34:48.338Z,37.90
2018-09-27T15:37:18.421Z,38.50
2018-09-27T15:39:48.582Z,38.20
2018-09-27T15:42:18.713Z,38.50
2018-09-27T15:44:48.760Z,38.90
2018-09-27T15:47:18.845Z,38.80
2018-09-27T15:49:48.915Z,39.30
2018-09-27T15:52:19.012Z,39.40
2018-09-27T15:54:49.021Z,40.20
2018-09-27T15:57:19.154Z,40.30
2018-09-27T15:59:49.369Z,40.90
2018-09-27T16:02:19.435Z,41.20
2018-09-27T16:04:49.481Z,41.30
2018-09-27T16:07:19.689Z,41.40
2018-09-27T16:09:49.777Z,41.40
2018-09-27T16:12:19.795Z,41.70
2018-09-27T16:14:50.194Z,42.10
2018-09-27T16:17:20.227Z,42.50
2018-09-27T16:19:50.308Z,42.90
2018-09-27T16:22:20.389Z,43.00
2018-09-27T16:24:50.446Z,43.40
2018-09-27T16:27:20.600Z,44.10
2018-09-27T16:29:50.658Z,43.60
2018-09-27T16:32:20.688Z,43.80
2018-09-27T16:34:51.197Z,44.00
2018-09-27T16:37:21.292Z,44.20
2018-09-27T16:39:51.361Z,44.30
2018-09-27T16:42:21.415Z,44.50
2018-09-27T16:44:51.595Z,44.80
2018-09-27T16:47:21.661Z,45.00
2018-09-27T16:52:33.729Z,45.60
2018-09-27T16:55:03.784Z,46.10
2018-09-27T16:57:33.839Z,46.60
2018-09-27T17:00:04.014Z,46.90
2018-09-27T17:02:34.170Z,47.20
2018-09-27T17:05:04.269Z,47.40
2018-09-27T17:07:34.331Z,47.50
2018-09-27T17:10:04.590Z,47.70
2018-09-27T17:12:34.847Z,48.00
2018-09-27T17:15:05.126Z,48.20
2018-09-27T17:17:35.302Z,48.40
2018-09-27T17:20:05.346Z,48.70
2018-09-27T17:22:35.615Z,49.10
2018-09-27T17:25:06.123Z,49.40
2018-09-27T17:27:36.330Z,49.70
2018-09-27T17:30:06.816Z,50.10
2018-09-27T17:32:37.116Z,51.10
2018-09-27T17:35:07.303Z,50.90
2018-09-27T17:37:37.400Z,51.30
2018-09-27T17:40:10.345Z,51.70
2018-09-27T17:42:40.700Z,52.00
2018-09-27T17:45:10.769Z,52.40
2018-09-27T17:47:40.800Z,52.60
2018-09-27T17:50:10.839Z,53.00
2018-09-27T17:52:41.009Z,53.20
2018-09-27T17:55:11.018Z,53.60
2018-09-27T17:57:41.086Z,53.70
2018-09-27T18:00:11.211Z,54.00
2018-09-27T18:02:41.367Z,54.20
2018-09-27T18:05:18.984Z,54.40
2018-09-27T18:07:41.897Z,54.60
2018-09-27T18:10:11.994Z,54.80
2018-09-27T18:12:42.188Z,55.10
2018-09-27T18:15:12.325Z,55.50
2018-09-27T18:17:42.509Z,55.70
2018-09-27T18:20:12.437Z,56.00
2018-09-27T18:22:42.651Z,56.30
2018-09-27T18:25:12.603Z,56.60
2018-09-27T18:27:42.660Z,56.90
2018-09-27T18:30:13.300Z,57.40
2018-09-27T18:32:43.761Z,57.30
2018-09-27T18:35:13.973Z,57.80
2018-09-27T18:37:44.214Z,58.10
2018-09-27T18:40:14.929Z,58.30
2018-09-27T18:42:44.981Z,58.70
2018-09-27T18:45:15.131Z,58.90
2018-09-27T18:47:45.194Z,59.20
2018-09-27T18:50:15.364Z,59.50
2018-09-27T18:52:45.483Z,60.10
2018-09-27T18:55:15.491Z,60.70
2018-09-27T18:57:45.681Z,61.20
2018-09-27T19:00:15.698Z,61.60
2018-09-27T19:02:45.787Z,62.00
2018-09-27T19:05:15.843Z,62.40
2018-09-27T19:07:45.998Z,62.90
2018-09-27T19:10:16.164Z,63.30
2018-09-27T19:12:46.408Z,63.90
2018-09-27T19:15:16.322Z,64.50
2018-09-27T19:17:46.428Z,64.90
2018-09-27T19:20:16.528Z,65.10
2018-09-27T19:22:46.724Z,65.30
2018-09-27T19:25:16.708Z,65.70
2018-09-27T19:27:46.741Z,65.80
2018-09-27T19:30:16.743Z,66.00
2018-09-27T19:32:46.937Z,66.40
2018-09-27T19:35:17.133Z,66.80
2018-09-27T19:37:47.251Z,67.30
2018-09-27T19:40:17.233Z,67.70
2018-09-27T19:42:48.003Z,68.20
2018-09-27T19:45:18.084Z,68.50
2018-09-27T19:47:48.113Z,68.90
2018-09-27T19:50:18.294Z,69.10
2018-09-27T19:52:48.474Z,69.30
2018-09-27T19:55:18.501Z,69.60
2018-09-27T19:57:49.004Z,70.00
2018-09-27T20:00:19.098Z,70.20
2018-09-27T20:02:49.144Z,70.50
2018-09-27T20:05:19.457Z,70.60
2018-09-27T20:07:49.531Z,70.80
2018-09-27T20:10:19.601Z,71.10
2018-09-27T20:12:49.832Z,71.70
2018-09-27T20:15:19.923Z,72.00
2018-09-27T20:17:49.960Z,72.20
2018-09-27T20:20:20.090Z,72.30
2018-09-27T20:22:50.340Z,72.60
2018-09-27T20:25:20.562Z,72.90
2018-09-27T20:27:50.533Z,73.10
2018-09-27T20:30:20.624Z,73.40
2018-09-27T20:32:50.863Z,73.90
2018-09-27T20:35:20.954Z,74.20
2018-09-27T20:37:51.051Z,74.50
2018-09-27T20:40:21.211Z,74.40
2018-09-27T20:42:51.376Z,74.50
2018-09-27T20:45:22.065Z,75.00
2018-09-27T20:47:52.162Z,75.10
2018-09-27T20:50:22.242Z,75.00
2018-09-27T20:52:52.343Z,75.00
2018-09-27T20:55:22.445Z,75.40
2018-09-27T20:57:52.527Z,75.90
2018-09-27T21:00:24.660Z,76.00
2018-09-27T21:02:54.912Z,76.30
2018-09-27T21:05:27.004Z,76.60
2018-09-27T21:07:57.279Z,77.00
2018-09-27T21:10:27.625Z,77.10
2018-09-27T21:12:57.705Z,77.40
2018-09-27T21:15:27.730Z,77.50
2018-09-27T21:17:57.749Z,77.80
2018-09-27T21:20:27.995Z,78.00
2018-09-27T21:22:58.006Z,78.00
2018-09-27T21:25:28.015Z,78.30
2018-09-27T21:27:58.157Z,78.70
2018-09-27T21:30:28.215Z,78.90
2018-09-27T21:32:58.410Z,79.20
2018-09-27T21:35:28.379Z,80.30
2018-09-27T21:37:58.681Z,79.40
2018-09-27T21:40:28.859Z,79.50
2018-09-27T21:42:59.159Z,79.80
2018-09-27T21:45:29.261Z,80.00
2018-09-27T21:47:59.387Z,80.20
2018-09-27T21:50:29.648Z,80.50
2018-09-27T21:52:59.651Z,80.40
2018-09-27T21:55:29.731Z,80.60
2018-09-27T21:57:59.867Z,80.80
2018-09-27T22:00:30.123Z,80.80
2018-09-27T22:03:00.255Z,80.80
2018-09-27T22:05:30.317Z,80.60
2018-09-27T22:08:00.362Z,80.40
2018-09-27T22:10:30.493Z,80.50
2018-09-27T22:13:00.606Z,80.60
2018-09-27T22:15:30.852Z,80.50
2018-09-27T22:18:00.985Z,80.70
2018-09-27T22:20:31.209Z,81.00
2018-09-27T22:23:01.369Z,80.90
2018-09-27T22:25:31.660Z,80.70
2018-09-27T22:28:02.041Z,80.90
2018-09-27T22:30:32.943Z,81.30
2018-09-27T22:33:03.062Z,81.70
2018-09-27T22:35:34.152Z,82.10
2018-09-27T22:38:04.184Z,82.60
2018-09-27T22:40:34.285Z,83.10
2018-09-27T22:43:04.363Z,83.40
2018-09-27T22:45:34.373Z,83.70
2018-09-27T22:48:04.414Z,84.10
2018-09-27T22:50:34.447Z,84.50
2018-09-27T22:53:05.218Z,84.80
2018-09-27T22:55:35.449Z,84.90
2018-09-27T22:58:05.489Z,85.40
2018-09-27T23:00:35.559Z,85.60
2018-09-27T23:03:05.823Z,85.80
2018-09-27T23:05:35.997Z,86.10
2018-09-27T23:08:06.054Z,86.10
2018-09-27T23:10:36.136Z,86.50
2018-09-27T23:13:06.383Z,86.90
2018-09-27T23:15:37.012Z,87.00
2018-09-27T23:18:07.110Z,87.30
2018-09-27T23:20:37.173Z,87.80
2018-09-27T23:23:07.308Z,88.10
2018-09-27T23:25:37.488Z,88.40
2018-09-27T23:28:07.508Z,88.60
2018-09-27T23:30:37.525Z,89.00
2018-09-27T23:33:07.547Z,89.40
2018-09-27T23:35:38.359Z,89.60
2018-09-27T23:38:08.501Z,89.80
2018-09-27T23:40:38.754Z,89.80
2018-09-27T23:43:08.892Z,90.00
2018-09-27T23:45:50.574Z,90.00
2018-09-27T23:48:20.647Z,90.00
2018-09-27T23:50:50.660Z,90.00
2018-09-27T23:53:20.741Z,90.10
2018-09-27T23:55:51.176Z,90.10
2018-09-27T23:58:21.436Z,90.20
